Time;durP1;ratioP1;P1;durP2;ratioP2;P2;SDS_P1;SDS_P2;PMS_P1;PMS_P2;Temp;Humidity;BMP_temperature;BMP_pressure;BME280_temperature;BME280_humidity;BME280_pressure;Samples;Min_cycle;Max_cycle;Signal;HPM_P1;HPM_P2
2021/01/31 00:02:04;;;;;;;2.43;2.23;;;15.20;49.30;;;;;;5012259;28;20248;-43
2021/01/31 00:04:29;;;;;;;2.60;2.40;;;15.20;49.10;;;;;;5011757;28;20194;-43
2021/01/31 00:06:56;;;;;;;2.50;2.40;;;15.30;49.10;;;;;;5012821;28;20296;-43
2021/01/31 00:09:22;;;;;;;3.50;3.20;;;15.10;46.70;;;;;;5011849;28;20591;-43
2021/01/31 00:11:47;;;;;;;2.67;2.37;;;15.00;48.40;;;;;;5012275;28;20444;-44
2021/01/31 00:14:13;;;;;;;1.70;1.60;;;15.00;48.70;;;;;;5011279;28;20441;-44
2021/01/31 00:16:39;;;;;;;3.20;3.00;;;15.20;49.60;;;;;;5011963;28;20225;-43
2021/01/31 00:19:04;;;;;;;2.27;2.07;;;15.30;49.10;;;;;;5010018;28;20225;-43
2021/01/31 00:21:30;;;;;;;4.03;3.60;;;15.40;48.70;;;;;;5011677;28;20190;-43
2021/01/31 00:23:55;;;;;;;3.93;3.50;;;15.40;49.10;;;;;;5011388;28;20190;-44
2021/01/31 00:26:21;;;;;;;4.23;2.93;;;15.50;48.60;;;;;;5010889;28;20194;-43
2021/01/31 00:28:47;;;;;;;3.70;3.40;;;15.50;48.20;;;;;;5011127;28;20637;-43
2021/01/31 00:31:12;;;;;;;4.00;3.10;;;15.50;48.00;;;;;;5012110;28;20217;-43
2021/01/31 00:33:38;;;;;;;3.50;3.20;;;15.50;47.40;;;;;;5011208;28;20232;-43
2021/01/31 00:36:03;;;;;;;3.60;3.23;;;15.50;47.80;;;;;;5012215;28;20244;-44
2021/01/31 00:38:29;;;;;;;3.03;2.80;;;15.50;48.40;;;;;;5011283;28;20197;-43
2021/01/31 00:40:55;;;;;;;3.17;2.93;;;15.50;48.40;;;;;;5011765;28;20198;-43
2021/01/31 00:43:20;;;;;;;3.13;2.93;;;15.60;48.00;;;;;;5011240;28;20205;-44
2021/01/31 00:45:46;;;;;;;3.13;2.87;;;15.60;47.80;;;;;;5010252;28;20555;-43
2021/01/31 00:48:12;;;;;;;2.60;2.40;;;15.50;47.40;;;;;;5010427;28;20649;-43
2021/01/31 00:50:39;;;;;;;3.33;3.07;;;15.40;47.80;;;;;;5011383;28;20194;-43
2021/01/31 00:53:06;;;;;;;2.80;2.60;;;15.40;46.60;;;;;;5010835;28;20971;-43
2021/01/31 00:55:32;;;;;;;3.07;2.87;;;15.40;47.60;;;;;;5011630;28;20461;-44
2021/01/31 00:57:57;;;;;;;3.70;3.40;;;15.30;47.90;;;;;;5010799;28;20457;-43
2021/01/31 01:00:25;;;;;;;3.07;2.87;;;15.40;47.30;;;;;;5010518;28;20441;-43
2021/01/31 01:02:51;;;;;;;3.50;3.20;;;15.00;45.70;;;;;;5008795;28;20194;-44
2021/01/31 01:05:20;;;;;;;3.03;2.83;;;14.90;48.10;;;;;;5010932;28;20449;-43
2021/01/31 01:07:46;;;;;;;3.60;3.30;;;14.70;46.90;;;;;;5010411;28;20190;-43
2021/01/31 01:10:14;;;;;;;2.97;2.77;;;14.70;48.20;;;;;;5010307;28;20448;-43
2021/01/31 01:12:40;;;;;;;2.93;2.73;;;14.80;48.10;;;;;;5011069;28;20221;-43
2021/01/31 01:15:07;;;;;;;2.90;2.70;;;14.80;48.30;;;;;;5009399;28;20959;-44
2021/01/31 01:17:33;;;;;;;3.00;2.80;;;14.80;48.80;;;;;;5011254;28;20314;-43
2021/01/31 01:19:59;;;;;;;3.60;3.30;;;14.90;48.40;;;;;;5010784;28;20520;-44
2021/01/31 01:22:25;;;;;;;4.23;3.93;;;14.90;48.20;;;;;;5010563;28;20201;-43
2021/01/31 01:24:52;;;;;;;3.30;3.10;;;14.90;48.00;;;;;;5010070;28;20197;-43
2021/01/31 01:27:20;;;;;;;3.27;3.07;;;14.60;47.70;;;;;;5010890;28;20202;-44
2021/01/31 01:29:46;;;;;;;3.40;2.90;;;14.60;49.10;;;;;;5008979;28;20998;-43
2021/01/31 01:32:11;;;;;;;3.30;3.10;;;14.70;48.70;;;;;;5011508;28;20481;-43
2021/01/31 01:34:37;;;;;;;4.10;3.80;;;14.40;48.30;;;;;;5009969;28;20487;-43
2021/01/31 01:37:03;;;;;;;2.60;2.40;;;14.50;49.00;;;;;;5010715;28;20216;-43
2021/01/31 01:39:28;;;;;;;3.93;3.70;;;14.40;48.70;;;;;;5009627;28;20194;-43
2021/01/31 01:41:54;;;;;;;4.10;3.70;;;14.50;48.50;;;;;;5009328;28;20475;-43
2021/01/31 01:44:20;;;;;;;3.73;3.43;;;14.10;47.50;;;;;;5009563;28;20649;-43
2021/01/31 01:46:50;;;;;;;3.90;3.60;;;13.90;49.20;;;;;;5011089;28;20238;-43
2021/01/31 01:49:22;;;;;;;4.40;4.00;;;13.70;49.60;;;;;;5010106;28;20198;-43
2021/01/31 01:52:03;;;;;;;4.87;4.47;;;13.30;50.30;;;;;;5010846;28;20453;-44
2021/01/31 01:54:35;;;;;;;4.13;3.83;;;13.30;50.90;;;;;;5008758;28;20459;-43
2021/01/31 01:57:06;;;;;;;4.17;3.17;;;13.50;51.00;;;;;;5010553;28;20799;-44
2021/01/31 01:59:33;;;;;;;4.90;4.50;;;13.90;51.70;;;;;;5010263;28;20967;-44
2021/01/31 02:02:17;;;;;;;4.40;4.00;;;14.10;51.30;;;;;;5010403;28;20476;-44
2021/01/31 02:04:43;;;;;;;4.40;4.00;;;14.30;50.80;;;;;;5009269;28;20487;-44
2021/01/31 02:07:08;;;;;;;5.10;4.70;;;14.30;49.90;;;;;;5010056;28;20481;-43
2021/01/31 02:09:35;;;;;;;4.53;4.20;;;14.50;50.40;;;;;;5008117;28;20491;-44
2021/01/31 02:12:03;;;;;;;3.30;2.97;;;14.50;49.30;;;;;;5010756;28;20206;-43
2021/01/31 02:14:30;;;;;;;5.50;4.30;;;14.70;49.70;;;;;;5009498;28;20437;-43
2021/01/31 02:16:58;;;;;;;4.73;4.43;;;14.80;49.50;;;;;;5010631;28;20849;-43
2021/01/31 02:19:54;;;;;;;4.80;4.47;;;14.90;47.80;;;;;;5010032;28;20449;-44
2021/01/31 02:22:47;;;;;;;5.23;4.83;;;14.80;46.80;;;;;;5010280;28;20441;-43
2021/01/31 02:25:36;;;;;;;5.03;4.60;;;14.80;48.20;;;;;;5005401;28;20452;-43
2021/01/31 02:28:23;;;;;;;6.50;4.80;;;14.80;48.20;;;;;;5009649;28;20448;-44
2021/01/31 02:31:08;;;;;;;5.03;4.20;;;14.80;47.90;;;;;;5009363;28;20445;-44
2021/01/31 02:33:40;;;;;;;5.00;4.60;;;14.90;48.50;;;;;;5006134;28;20493;-43
2021/01/31 02:36:28;;;;;;;4.70;4.40;;;14.90;47.50;;;;;;5009019;28;20443;-45
2021/01/31 02:39:10;;;;;;;4.73;4.33;;;14.80;46.50;;;;;;5008192;28;20437;-44
2021/01/31 02:41:50;;;;;;;5.93;4.27;;;14.80;47.30;;;;;;5013425;28;20468;-44
2021/01/31 02:44:21;;;;;;;3.90;3.60;;;14.70;47.20;;;;;;5013137;28;20445;-44
2021/01/31 02:46:58;;;;;;;4.10;3.80;;;14.50;46.40;;;;;;5013136;28;20480;-43
2021/01/31 02:49:29;;;;;;;4.40;4.03;;;14.40;47.10;;;;;;5013040;28;20440;-45
2021/01/31 02:52:17;;;;;;;3.90;3.60;;;14.40;47.50;;;;;;5013433;28;20437;-44
2021/01/31 02:54:57;;;;;;;4.43;4.03;;;14.30;46.90;;;;;;5009797;28;20433;-43
2021/01/31 02:57:46;;;;;;;4.37;4.00;;;14.20;47.50;;;;;;5012799;28;20444;-43
2021/01/31 03:00:14;;;;;;;4.50;4.10;;;14.10;46.50;;;;;;5013147;28;20444;-44
2021/01/31 03:03:11;;;;;;;4.63;4.33;;;14.00;48.40;;;;;;5013379;28;20520;-44
2021/01/31 03:05:43;;;;;;;5.00;4.60;;;14.00;48.20;;;;;;5007995;28;20495;-43
2021/01/31 03:08:22;;;;;;;5.20;4.70;;;14.00;48.00;;;;;;5012988;28;20555;-43
2021/01/31 03:11:12;;;;;;;3.70;3.40;;;14.00;46.80;;;;;;5012457;28;20446;-43
2021/01/31 03:13:53;;;;;;;3.43;3.13;;;13.80;47.10;;;;;;5010194;28;20503;-43
2021/01/31 03:16:41;;;;;;;4.77;4.37;;;13.70;48.00;;;;;;5013035;28;20978;-43
2021/01/31 03:19:39;;;;;;;4.50;4.10;;;13.80;49.50;;;;;;5013353;28;20441;-44
2021/01/31 03:22:09;;;;;;;5.30;4.80;;;13.90;49.40;;;;;;4974405;28;20461;-43
2021/01/31 03:24:44;;;;;;;5.20;4.70;;;14.10;49.00;;;;;;5012406;28;20441;-43
2021/01/31 03:27:27;;;;;;;5.40;5.00;;;14.30;48.90;;;;;;5013245;28;20800;-43
2021/01/31 03:29:53;;;;;;;5.07;4.57;;;14.40;49.20;;;;;;5012501;28;20448;-43
2021/01/31 03:32:27;;;;;;;5.10;4.70;;;14.50;48.50;;;;;;5013023;28;20487;-43
2021/01/31 03:34:56;;;;;;;5.03;4.60;;;14.60;47.80;;;;;;5010503;28;20690;-43
2021/01/31 03:37:24;;;;;;;3.90;3.60;;;14.60;47.20;;;;;;5013327;28;20498;-43
2021/01/31 03:39:53;;;;;;;5.37;4.97;;;14.50;48.30;;;;;;5012949;28;20444;-43
2021/01/31 03:42:19;;;;;;;4.80;4.40;;;14.40;48.00;;;;;;5010695;28;20455;-43
2021/01/31 03:44:45;;;;;;;6.33;4.90;;;14.40;48.80;;;;;;5012183;28;20917;-43
2021/01/31 03:47:32;;;;;;;8.00;5.50;;;14.50;48.60;;;;;;5013222;28;20358;-44
2021/01/31 03:49:59;;;;;;;4.80;4.40;;;14.60;47.70;;;;;;5009746;28;20201;-43
2021/01/31 03:52:26;;;;;;;4.73;4.33;;;14.60;47.50;;;;;;5011007;28;20489;-44
2021/01/31 03:54:52;;;;;;;4.03;3.73;;;14.30;47.80;;;;;;5007036;28;21030;-43
2021/01/31 03:57:27;;;;;;;5.70;5.20;;;14.20;48.10;;;;;;5010497;28;20463;-43
2021/01/31 04:00:03;;;;;;;4.97;4.53;;;14.20;48.30;;;;;;5011115;28;20440;-43
2021/01/31 04:02:34;;;;;;;5.83;5.27;;;14.20;48.10;;;;;;5008864;28;20440;-43
2021/01/31 04:05:02;;;;;;;4.90;4.50;;;14.20;48.90;;;;;;5012076;28;20961;-44
2021/01/31 04:07:31;;;;;;;5.70;5.20;;;14.20;48.30;;;;;;5012576;28;20979;-43
2021/01/31 04:10:00;;;;;;;5.83;5.33;;;14.30;48.60;;;;;;5011772;28;20471;-43
2021/01/31 04:12:27;;;;;;;5.53;5.03;;;14.30;48.00;;;;;;5012315;28;20488;-43
2021/01/31 04:15:11;;;;;;;5.20;4.70;;;14.20;48.00;;;;;;5011913;28;20445;-43
2021/01/31 04:17:44;;;;;;;5.33;4.83;;;14.20;47.50;;;;;;5012746;28;20602;-44
2021/01/31 04:20:11;;;;;;;6.00;5.50;;;14.10;47.70;;;;;;5011439;28;20527;-43
2021/01/31 04:22:36;;;;;;;6.23;5.63;;;14.10;48.50;;;;;;5005593;28;20492;-43
2021/01/31 04:25:02;;;;;;;4.77;4.37;;;14.30;48.70;;;;;;5011592;28;20904;-43
2021/01/31 04:27:28;;;;;;;5.27;4.83;;;14.40;48.70;;;;;;5012608;28;20209;-43
2021/01/31 04:29:53;;;;;;;6.03;5.43;;;14.50;48.30;;;;;;5009949;28;20804;-43
2021/01/31 04:32:19;;;;;;;4.60;4.13;;;14.60;47.80;;;;;;5006816;28;20229;-43
2021/01/31 04:34:45;;;;;;;5.90;5.40;;;14.60;47.40;;;;;;5009428;28;20190;-43
2021/01/31 04:37:10;;;;;;;7.00;6.43;;;14.70;47.20;;;;;;5011907;28;20665;-43
2021/01/31 04:39:36;;;;;;;5.03;4.70;;;14.70;46.30;;;;;;5011446;28;20719;-43
2021/01/31 04:42:02;;;;;;;3.10;2.90;;;14.60;47.10;;;;;;5011838;28;20201;-43
2021/01/31 04:44:28;;;;;;;4.87;4.47;;;14.70;47.50;;;;;;5010809;28;20640;-44
2021/01/31 04:47:09;;;;;;;6.03;5.53;;;14.80;48.10;;;;;;5011706;28;20480;-44
2021/01/31 04:49:52;;;;;;;4.77;4.43;;;14.90;48.40;;;;;;5011420;28;20264;-43
2021/01/31 04:52:33;;;;;;;5.30;4.80;;;15.00;46.90;;;;;;5007238;28;20480;-43
2021/01/31 04:55:15;;;;;;;6.17;5.13;;;15.00;46.90;;;;;;5011344;28;20472;-44
2021/01/31 04:57:58;;;;;;;6.50;5.90;;;14.90;46.70;;;;;;5005614;28;20479;-43
2021/01/31 05:00:27;;;;;;;5.20;4.73;;;15.00;46.60;;;;;;5009603;28;20983;-43
2021/01/31 05:02:57;;;;;;;4.33;3.93;;;14.70;45.90;;;;;;5008498;28;20520;-44
2021/01/31 05:05:27;;;;;;;5.53;5.13;;;14.60;46.50;;;;;;5011181;28;20487;-43
2021/01/31 05:08:01;;;;;;;6.13;5.63;;;14.50;46.00;;;;;;5010444;28;20425;-44
2021/01/31 05:10:27;;;;;;;4.80;4.40;;;14.00;46.70;;;;;;5006824;28;20872;-43
2021/01/31 05:13:27;;;;;;;5.17;4.73;;;13.70;47.40;;;;;;5004578;28;20543;-43
2021/01/31 05:15:58;;;;;;;5.40;4.63;;;13.70;48.60;;;;;;5001976;28;20440;-43
2021/01/31 05:18:25;;;;;;;4.80;4.27;;;13.30;47.90;;;;;;5009970;28;20441;-43
2021/01/31 05:20:57;;;;;;;5.50;5.00;;;12.90;48.90;;;;;;5011625;28;20567;-43
2021/01/31 05:23:22;;;;;;;5.83;5.33;;;12.70;49.40;;;;;;5010264;28;20447;-43
2021/01/31 05:25:48;;;;;;;5.13;4.63;;;12.80;49.80;;;;;;5009583;28;20436;-44
2021/01/31 05:28:14;;;;;;;5.87;5.33;;;12.90;50.30;;;;;;5010343;28;20233;-43
2021/01/31 05:30:43;;;;;;;7.17;4.90;;;12.60;49.00;;;;;;5010930;28;20554;-42
2021/01/31 05:33:10;;;;;;;6.70;6.00;;;11.70;49.90;;;;;;5009606;28;20275;-43
2021/01/31 05:35:39;;;;;;;5.23;4.73;;;11.80;52.80;;;;;;5010405;28;20429;-43
2021/01/31 05:38:04;;;;;;;6.03;5.53;;;12.00;51.90;;;;;;5009877;28;20877;-43
2021/01/31 05:40:40;;;;;;;5.63;5.07;;;11.80;52.40;;;;;;5010688;28;20451;-43
2021/01/31 05:43:11;;;;;;;7.00;6.30;;;12.10;52.10;;;;;;5009922;28;20206;-43
2021/01/31 05:45:42;;;;;;;7.10;6.37;;;12.30;52.30;;;;;;5010925;28;20816;-43
2021/01/31 05:48:34;;;;;;;6.77;6.10;;;12.30;50.10;;;;;;5010112;28;20539;-43
2021/01/31 05:51:15;;;;;;;5.60;5.10;;;12.30;50.20;;;;;;5010552;28;20429;-43
2021/01/31 05:53:41;;;;;;;5.23;4.73;;;12.40;50.60;;;;;;5007948;28;20588;-43
2021/01/31 05:56:28;;;;;;;7.00;6.27;;;12.40;51.20;;;;;;5011470;28;20429;-43
2021/01/31 05:59:06;;;;;;;6.23;5.70;;;12.70;51.10;;;;;;5009847;28;20456;-43
2021/01/31 06:01:32;;;;;;;6.37;5.77;;;12.80;50.10;;;;;;5009891;28;20437;-43
2021/01/31 06:04:17;;;;;;;6.20;5.60;;;13.00;49.80;;;;;;5009520;28;21290;-43
2021/01/31 06:06:44;;;;;;;5.40;4.90;;;13.10;49.80;;;;;;5009930;28;20437;-43
2021/01/31 06:09:33;;;;;;;4.97;4.57;;;13.20;49.40;;;;;;5009550;28;20431;-43
2021/01/31 06:12:20;;;;;;;5.03;4.63;;;13.40;49.00;;;;;;5010021;28;20428;-44
2021/01/31 06:14:50;;;;;;;5.63;5.10;;;13.60;49.20;;;;;;5012495;28;20437;-43
2021/01/31 06:17:21;;;;;;;6.43;5.50;;;13.80;49.30;;;;;;5016406;28;20443;-43
2021/01/31 06:19:48;;;;;;;5.33;4.83;;;13.90;48.90;;;;;;5015532;28;20471;-43
2021/01/31 06:22:14;;;;;;;4.80;4.40;;;14.10;48.50;;;;;;5015949;28;20441;-43
2021/01/31 06:24:49;;;;;;;4.70;4.30;;;14.10;48.10;;;;;;5016372;28;20448;-43
2021/01/31 06:27:29;;;;;;;5.33;4.90;;;14.30;48.30;;;;;;5017072;28;20849;-43
2021/01/31 06:30:12;;;;;;;5.67;5.17;;;14.40;47.70;;;;;;5016210;28;20489;-43
2021/01/31 06:32:38;;;;;;;4.40;4.00;;;14.50;47.50;;;;;;5015224;28;20967;-43
2021/01/31 06:35:08;;;;;;;5.33;4.77;;;14.50;47.90;;;;;;5016259;28;20920;-43
2021/01/31 06:37:52;;;;;;;5.63;5.13;;;14.50;47.10;;;;;;5016812;28;20440;-43
2021/01/31 06:40:32;;;;;;;5.80;5.20;;;14.50;45.80;;;;;;5009668;28;21196;-43
2021/01/31 06:43:10;;;;;;;7.40;5.53;;;13.60;44.90;;;;;;5015122;28;20464;-43
2021/01/31 06:45:50;;;;;;;5.50;5.00;;;13.40;47.10;;;;;;5016650;28;20943;-43
2021/01/31 06:48:40;;;;;;;5.60;5.10;;;13.40;47.40;;;;;;5014558;28;20472;-44
2021/01/31 06:51:33;;;;;;;5.67;5.13;;;13.40;47.40;;;;;;5016477;28;20440;-43
2021/01/31 06:54:36;;;;;;;6.00;5.50;;;13.40;46.70;;;;;;5012031;28;20485;-44
2021/01/31 06:57:32;;;;;;;5.80;5.20;;;13.00;47.20;;;;;;5015430;28;20510;-43
2021/01/31 07:00:15;;;;;;;5.07;4.67;;;13.00;48.00;;;;;;5012748;28;20444;-43
2021/01/31 07:02:59;;;;;;;6.03;5.40;;;12.90;48.20;;;;;;5011941;28;20442;-43
2021/01/31 07:05:53;;;;;;;5.80;5.30;;;12.80;48.20;;;;;;5015620;28;20879;-43
2021/01/31 07:08:41;;;;;;;6.10;5.53;;;12.60;48.70;;;;;;5012745;28;21280;-43
2021/01/31 07:11:28;;;;;;;6.00;5.40;;;12.30;48.40;;;;;;5016452;28;20444;-43
2021/01/31 07:14:29;;;;;;;5.73;5.13;;;12.30;48.90;;;;;;5015393;28;20488;-43
2021/01/31 07:16:57;;;;;;;6.63;5.77;;;12.10;49.00;;;;;;5014267;28;20472;-43
2021/01/31 07:19:29;;;;;;;5.17;4.70;;;11.90;49.70;;;;;;5014706;28;21211;-43
2021/01/31 07:22:16;;;;;;;5.90;5.40;;;11.90;49.90;;;;;;5016232;28;21020;-43
2021/01/31 07:25:04;;;;;;;6.00;5.47;;;12.00;49.90;;;;;;5011411;28;20448;-43
2021/01/31 07:28:24;;;;;;;6.20;5.40;;;11.80;50.00;;;;;;5014436;28;20877;-43
2021/01/31 07:31:16;;;;;;;5.97;5.37;;;11.80;50.50;;;;;;4981013;28;20449;-42
2021/01/31 07:33:54;;;;;;;6.30;5.70;;;11.60;50.30;;;;;;5002051;28;20485;-42
2021/01/31 07:36:57;;;;;;;5.40;5.00;;;11.50;50.70;;;;;;5013651;28;20425;-42
2021/01/31 07:39:30;;;;;;;5.97;5.47;;;11.40;50.80;;;;;;5005882;28;20445;-42
2021/01/31 07:41:57;;;;;;;6.87;6.00;;;11.50;51.20;;;;;;4993601;28;21297;-42
2021/01/31 07:44:27;;;;;;;7.83;7.10;;;11.00;50.70;;;;;;5011898;28;20440;-42
2021/01/31 07:46:57;;;;;;;7.67;6.90;;;11.10;51.70;;;;;;5013956;28;20572;-42
2021/01/31 07:49:23;;;;;;;7.70;6.90;;;11.30;51.60;;;;;;5013605;28;20429;-42
2021/01/31 07:51:48;;;;;;;6.50;5.90;;;11.30;51.50;;;;;;5013732;28;20539;-42
2021/01/31 07:54:21;;;;;;;7.57;6.43;;;11.20;51.10;;;;;;5013818;28;20230;-42
2021/01/31 07:56:47;;;;;;;6.20;5.70;;;11.30;51.10;;;;;;5003865;28;20198;-43
2021/01/31 07:59:13;;;;;;;6.13;5.63;;;11.20;51.60;;;;;;5012564;28;20516;-43
2021/01/31 08:01:42;;;;;;;7.20;6.50;;;11.20;51.60;;;;;;5024125;28;20947;-43
2021/01/31 08:04:16;;;;;;;8.07;7.27;;;11.20;51.50;;;;;;5016741;28;20280;-43
2021/01/31 08:06:57;;;;;;;6.77;6.10;;;11.20;52.10;;;;;;5012519;28;20443;-43
2021/01/31 08:09:26;;;;;;;7.53;6.83;;;11.30;51.90;;;;;;5012918;28;20449;-42
2021/01/31 08:12:08;;;;;;;6.80;6.00;;;11.30;51.80;;;;;;5001596;28;20859;-43
2021/01/31 08:15:11;;;;;;;6.20;5.40;;;11.20;51.70;;;;;;5001751;28;20959;-43
2021/01/31 08:17:38;;;;;;;7.13;6.50;;;11.20;52.00;;;;;;5010576;28;20445;-43
2021/01/31 08:20:31;;;;;;;6.57;5.97;;;11.20;52.00;;;;;;5009752;28;20511;-43
2021/01/31 08:22:58;;;;;;;8.27;6.80;;;11.20;52.40;;;;;;5005949;28;20924;-43
2021/01/31 08:25:25;;;;;;;6.60;6.00;;;11.20;52.30;;;;;;5007828;28;20442;-43
2021/01/31 08:28:16;;;;;;;7.00;6.30;;;11.10;52.20;;;;;;5007833;28;20471;-43
2021/01/31 08:31:04;;;;;;;6.20;5.60;;;11.10;52.50;;;;;;5010373;28;20445;-43
2021/01/31 08:33:41;;;;;;;5.97;5.37;;;11.20;52.40;;;;;;4999429;28;20488;-43
2021/01/31 08:36:19;;;;;;;7.10;5.30;;;11.00;52.40;;;;;;5009025;28;20533;-42
2021/01/31 08:38:55;;;;;;;7.33;5.30;;;10.70;53.10;;;;;;5006688;28;20443;-43
2021/01/31 08:41:30;;;;;;;6.03;5.50;;;10.70;53.50;;;;;;5009507;28;21167;-42
2021/01/31 08:44:24;;;;;;;5.90;5.40;;;10.60;53.00;;;;;;5008027;28;20425;-43
2021/01/31 08:47:01;;;;;;;6.03;5.50;;;10.60;53.50;;;;;;5008503;28;20472;-43
2021/01/31 08:49:27;;;;;;;6.07;5.47;;;10.50;53.20;;;;;;5010215;28;20448;-43
2021/01/31 08:52:02;;;;;;;6.93;5.87;;;10.30;53.60;;;;;;5008765;28;20425;-42
2021/01/31 08:54:28;;;;;;;6.33;5.73;;;10.10;54.40;;;;;;5010750;28;20857;-42
2021/01/31 08:57:00;;;;;;;5.80;5.30;;;9.90;55.70;;;;;;5009922;28;20797;-42
2021/01/31 08:59:44;;;;;;;6.10;5.50;;;9.90;56.10;;;;;;5009938;28;20437;-42
2021/01/31 09:02:13;;;;;;;6.77;6.17;;;10.10;54.90;;;;;;5007612;28;20436;-42
2021/01/31 09:04:59;;;;;;;6.10;5.50;;;10.00;55.10;;;;;;5010105;28;20441;-42
2021/01/31 09:07:31;;;;;;;6.07;5.57;;;10.20;55.00;;;;;;5009244;28;20479;-42
2021/01/31 09:10:05;;;;;;;7.23;5.70;;;10.50;54.30;;;;;;5009721;28;20948;-42
2021/01/31 09:12:30;;;;;;;7.47;6.50;;;10.60;53.90;;;;;;5008988;28;20995;-42
2021/01/31 09:15:25;;;;;;;6.80;6.20;;;10.60;53.30;;;;;;5009583;28;20437;-42
2021/01/31 09:17:51;;;;;;;7.47;6.67;;;10.10;54.10;;;;;;5003434;28;20780;-42
2021/01/31 09:20:21;;;;;;;7.10;6.40;;;10.00;55.00;;;;;;5009745;28;20429;-42
2021/01/31 09:22:49;;;;;;;7.00;6.30;;;10.00;55.40;;;;;;5006815;28;20436;-42
2021/01/31 09:25:18;;;;;;;7.83;7.13;;;9.80;56.00;;;;;;5007393;28;20452;-42
2021/01/31 09:27:59;;;;;;;7.00;6.27;;;9.70;56.80;;;;;;5009937;28;20462;-42
2021/01/31 09:30:26;;;;;;;6.70;6.10;;;10.00;55.30;;;;;;5007372;28;20440;-43
2021/01/31 09:32:56;;;;;;;7.50;6.80;;;10.20;55.10;;;;;;5007115;28;20472;-42
2021/01/31 09:35:37;;;;;;;5.97;5.40;;;10.00;55.10;;;;;;5007439;28;20598;-42
2021/01/31 09:38:14;;;;;;;6.60;6.00;;;10.10;55.00;;;;;;5008356;28;20833;-42
2021/01/31 09:40:41;;;;;;;7.30;6.70;;;9.90;55.90;;;;;;5010284;28;20445;-42
2021/01/31 09:43:11;;;;;;;6.30;5.80;;;10.00;55.00;;;;;;4997498;28;20449;-43
2021/01/31 09:45:41;;;;;;;7.13;6.43;;;10.00;54.80;;;;;;5010567;28;20447;-42
2021/01/31 09:48:14;;;;;;;7.90;7.20;;;9.80;56.10;;;;;;5008224;28;20437;-42
2021/01/31 09:50:45;;;;;;;6.67;6.07;;;9.70;56.50;;;;;;5007515;28;20484;-42
2021/01/31 09:53:25;;;;;;;7.63;6.83;;;9.80;56.60;;;;;;5008780;28;21166;-43
2021/01/31 09:55:51;;;;;;;7.60;6.90;;;9.80;56.70;;;;;;4997513;28;20502;-43
2021/01/31 09:58:26;;;;;;;7.27;6.50;;;9.60;57.00;;;;;;5005142;28;20441;-42
2021/01/31 10:00:53;;;;;;;6.87;6.17;;;9.10;57.60;;;;;;5007907;28;20648;-42
2021/01/31 10:03:29;;;;;;;8.90;7.30;;;9.20;58.60;;;;;;5003715;28;20962;-42
2021/01/31 10:06:25;;;;;;;8.70;7.30;;;9.10;58.20;;;;;;5000613;28;20971;-42
2021/01/31 10:09:00;;;;;;;7.00;6.30;;;9.20;58.30;;;;;;4988426;28;20984;-42
2021/01/31 10:11:33;;;;;;;7.87;6.90;;;8.90;58.70;;;;;;5005153;28;20547;-43
2021/01/31 10:14:00;;;;;;;8.50;6.70;;;9.10;58.40;;;;;;5007442;28;20514;-43
2021/01/31 10:16:32;;;;;;;7.20;6.50;;;9.00;58.80;;;;;;5002839;28;20495;-42
2021/01/31 10:19:09;;;;;;;10.07;7.10;;;8.90;59.00;;;;;;5004197;28;20920;-43
2021/01/31 10:21:38;;;;;;;13.33;9.50;;;8.80;59.00;;;;;;5009923;28;20932;-43
2021/01/31 10:24:16;;;;;;;7.87;7.07;;;8.50;60.10;;;;;;5004117;28;20428;-43
2021/01/31 10:26:42;;;;;;;7.80;7.10;;;8.50;60.40;;;;;;5008640;28;20982;-42
2021/01/31 10:29:08;;;;;;;9.50;8.03;;;8.70;60.20;;;;;;5009635;28;20495;-42
2021/01/31 10:31:39;;;;;;;8.60;7.67;;;8.90;59.30;;;;;;5007815;28;20437;-42
2021/01/31 10:34:09;;;;;;;8.67;7.43;;;8.90;59.40;;;;;;5008606;28;20543;-43
2021/01/31 10:36:37;;;;;;;9.10;8.30;;;8.90;59.30;;;;;;5006944;28;20443;-42
2021/01/31 10:39:11;;;;;;;9.77;8.27;;;8.80;59.30;;;;;;5006940;28;20463;-43
2021/01/31 10:41:38;;;;;;;8.20;6.67;;;8.60;59.90;;;;;;5004083;28;20436;-42
2021/01/31 10:44:05;;;;;;;9.90;7.77;;;8.40;59.80;;;;;;5009059;28;20448;-42
2021/01/31 10:46:32;;;;;;;9.50;8.50;;;8.10;61.00;;;;;;5009831;28;20611;-42
2021/01/31 10:48:58;;;;;;;8.57;7.40;;;8.10;61.90;;;;;;5010441;28;20437;-42
2021/01/31 10:51:26;;;;;;;7.77;6.97;;;8.30;62.10;;;;;;5012257;28;20439;-42
2021/01/31 10:53:52;;;;;;;8.03;7.13;;;8.30;61.20;;;;;;5011620;28;20241;-42
2021/01/31 10:56:17;;;;;;;10.17;7.63;;;8.50;61.20;;;;;;5015472;28;20436;-42
2021/01/31 10:58:43;;;;;;;9.53;8.03;;;8.70;60.30;;;;;;5009921;28;20201;-42
2021/01/31 11:01:08;;;;;;;8.10;7.20;;;8.70;59.80;;;;;;5027754;28;20193;-42
2021/01/31 11:03:34;;;;;;;7.87;6.77;;;9.00;59.70;;;;;;5020247;28;20186;-42
2021/01/31 11:06:00;;;;;;;9.50;8.00;;;9.50;59.00;;;;;;5017548;28;20197;-42
2021/01/31 11:08:26;;;;;;;11.10;8.10;;;9.50;57.80;;;;;;5015689;28;20186;-42
2021/01/31 11:10:53;;;;;;;9.80;7.97;;;9.20;58.20;;;;;;5020692;28;20479;-42
2021/01/31 11:13:19;;;;;;;9.40;7.67;;;9.20;58.40;;;;;;5018176;28;20324;-42
2021/01/31 11:15:45;;;;;;;9.13;8.23;;;9.00;58.60;;;;;;5012054;28;20430;-42
2021/01/31 11:18:10;;;;;;;8.70;7.87;;;8.80;58.60;;;;;;5008940;28;20555;-42
2021/01/31 11:20:36;;;;;;;10.17;8.60;;;8.50;59.60;;;;;;5012610;28;20248;-42
2021/01/31 11:23:02;;;;;;;10.50;8.10;;;8.30;59.90;;;;;;5013446;28;20194;-42
2021/01/31 11:25:27;;;;;;;11.80;9.00;;;8.30;60.40;;;;;;5024177;28;20553;-42
2021/01/31 11:27:53;;;;;;;9.47;7.43;;;8.30;61.00;;;;;;5015429;28;20224;-42
2021/01/31 11:30:18;;;;;;;10.63;8.40;;;8.30;60.60;;;;;;5012518;28;20288;-42
2021/01/31 11:32:44;;;;;;;9.50;8.30;;;8.20;61.70;;;;;;5015289;28;20225;-42
2021/01/31 11:35:10;;;;;;;10.27;8.37;;;8.40;62.00;;;;;;5017061;28;20641;-42
2021/01/31 11:37:35;;;;;;;26.80;11.00;;;8.70;60.90;;;;;;5009636;28;20213;-41
2021/01/31 11:40:02;;;;;;;18.83;9.20;;;8.80;63.70;;;;;;5007610;28;20190;-42
2021/01/31 11:42:28;;;;;;;10.73;7.53;;;9.40;60.90;;;;;;5010278;28;20707;-42
2021/01/31 11:44:53;;;;;;;9.60;8.30;;;10.10;57.60;;;;;;5013452;28;20459;-42
2021/01/31 11:47:19;;;;;;;9.73;7.93;;;10.10;55.70;;;;;;5014516;28;20248;-41
2021/01/31 11:49:46;;;;;;;9.00;7.33;;;10.10;55.60;;;;;;5010710;28;20193;-42
2021/01/31 11:52:11;;;;;;;9.47;7.67;;;9.90;56.90;;;;;;5010390;28;20204;-42
2021/01/31 11:54:37;;;;;;;9.03;8.13;;;9.60;56.90;;;;;;4998864;28;20430;-42
2021/01/31 11:57:03;;;;;;;7.57;6.77;;;9.30;57.80;;;;;;5011525;28;20204;-42
2021/01/31 11:59:28;;;;;;;10.10;7.77;;;8.90;58.50;;;;;;5010952;28;20653;-42
2021/01/31 12:01:54;;;;;;;10.40;8.07;;;8.80;58.90;;;;;;5010665;28;20520;-41
2021/01/31 12:04:19;;;;;;;8.97;7.70;;;8.90;59.40;;;;;;5004703;28;20221;-42
2021/01/31 12:06:45;;;;;;;8.87;7.27;;;9.00;59.10;;;;;;5012216;28;20226;-41
2021/01/31 12:09:11;;;;;;;8.57;7.67;;;9.00;58.80;;;;;;5010927;28;20197;-41
2021/01/31 12:11:36;;;;;;;8.77;7.73;;;8.90;59.10;;;;;;5010180;28;20256;-41
2021/01/31 12:14:02;;;;;;;10.00;8.40;;;8.60;59.60;;;;;;5010803;28;20711;-41
2021/01/31 12:16:28;;;;;;;9.43;8.20;;;8.40;59.80;;;;;;5011880;28;20285;-41
2021/01/31 12:18:54;;;;;;;10.83;8.10;;;8.30;60.10;;;;;;5010300;28;20512;-41
2021/01/31 12:21:19;;;;;;;10.00;7.13;;;8.10;60.60;;;;;;5004228;28;20305;-42
2021/01/31 12:23:45;;;;;;;9.40;8.30;;;8.20;61.40;;;;;;5007348;28;20194;-42
2021/01/31 12:26:11;;;;;;;10.30;8.10;;;8.40;61.60;;;;;;5009976;28;20206;-42
2021/01/31 12:28:36;;;;;;;9.53;8.30;;;8.50;61.70;;;;;;5007204;28;20198;-42
2021/01/31 12:31:02;;;;;;;10.27;7.90;;;8.50;60.30;;;;;;5008927;28;20194;-41
2021/01/31 12:33:27;;;;;;;9.90;8.07;;;8.10;60.90;;;;;;5001512;28;20234;-41
2021/01/31 12:35:53;;;;;;;9.07;7.80;;;8.40;62.20;;;;;;5006685;28;20197;-41
2021/01/31 12:38:19;;;;;;;12.97;8.70;;;8.50;61.00;;;;;;5004485;28;20264;-42
2021/01/31 12:40:44;;;;;;;11.77;8.43;;;8.60;62.00;;;;;;5002802;28;20190;-42
2021/01/31 12:43:10;;;;;;;8.50;7.57;;;8.80;61.10;;;;;;5005295;28;20692;-42
2021/01/31 12:45:35;;;;;;;9.50;8.50;;;8.90;60.00;;;;;;5007606;28;20205;-41
2021/01/31 12:48:01;;;;;;;9.83;8.30;;;8.90;59.60;;;;;;5007897;28;20325;-43
2021/01/31 12:50:29;;;;;;;9.73;7.90;;;9.10;60.00;;;;;;5007331;28;20202;-43
2021/01/31 12:52:55;;;;;;;9.33;7.33;;;9.20;59.00;;;;;;5009059;28;20677;-43
2021/01/31 12:55:21;;;;;;;9.23;7.90;;;9.60;58.80;;;;;;5009002;28;20437;-43
2021/01/31 12:57:46;;;;;;;9.97;7.73;;;9.40;57.90;;;;;;5009039;28;20530;-42
2021/01/31 13:00:15;;;;;;;9.07;7.83;;;9.20;58.60;;;;;;5009654;28;20194;-43
2021/01/31 13:02:41;;;;;;;9.67;8.10;;;9.10;59.00;;;;;;5008573;28;20550;-42
2021/01/31 13:05:08;;;;;;;9.00;8.10;;;9.30;58.80;;;;;;5008026;28;20433;-43
2021/01/31 13:07:34;;;;;;;8.97;7.60;;;9.40;58.80;;;;;;5010373;28;20197;-43
2021/01/31 13:09:59;;;;;;;10.23;7.70;;;9.40;58.10;;;;;;5008809;28;20429;-42
2021/01/31 13:12:25;;;;;;;9.33;7.80;;;9.10;58.60;;;;;;5010531;28;20475;-42
2021/01/31 13:14:51;;;;;;;9.60;8.50;;;8.90;58.80;;;;;;5009709;28;20202;-43